Time;durP1;ratioP1;P1;durP2;ratioP2;P2;SDS_P1;SDS_P2;PMS_P1;PMS_P2;Temp;Humidity;BMP_temperature;BMP_pressure;BME280_temperature;BME280_humidity;BME280_pressure;Samples;Min_cycle;Max_cycle;Signal;HPM_P1;HPM_P2
2024/01/27 00:00:41;;;;;;;2.60;1.70;;;;;3.60;102780.00;;;;5065879;27;20234;-69
2024/01/27 00:03:27;;;;;;;2.20;1.30;;;;;3.60;102792.00;;;;5060964;28;20215;-68
2024/01/27 00:06:13;;;;;;;2.63;1.80;;;;;3.60;102785.00;;;;5070103;28;20247;-70
2024/01/27 00:09:01;;;;;;;6.27;1.43;;;;;3.60;102771.00;;;;5050118;27;20218;-68
2024/01/27 00:11:48;;;;;;;1.63;1.53;;;;;3.60;102779.00;;;;5038593;27;20203;-70
2024/01/27 00:14:34;;;;;;;4.73;1.70;;;;;3.40;102786.00;;;;5067534;27;20229;-70
2024/01/27 00:17:23;;;;;;;4.17;1.97;;;;;3.50;102783.00;;;;5111227;27;20258;-70
2024/01/27 00:20:11;;;;;;;12.73;2.57;;;;;3.60;102791.00;;;;5085888;27;20222;-71
2024/01/27 00:22:57;;;;;;;3.87;1.93;;;;;3.40;102789.00;;;;5060287;27;20598;-70
2024/01/27 00:25:45;;;;;;;1.20;1.10;;;;;3.50;102791.00;;;;5065275;27;20824;-69
2024/01/27 00:28:31;;;;;;;4.80;2.00;;;;;3.40;102803.00;;;;5056163;27;20343;-69
2024/01/27 00:31:17;;;;;;;8.87;2.30;;;;;3.40;102802.00;;;;5043687;27;20220;-68
2024/01/27 00:34:04;;;;;;;4.43;1.80;;;;;3.50;102813.00;;;;5060957;27;20285;-69
2024/01/27 00:36:50;;;;;;;4.80;1.90;;;;;3.50;102816.00;;;;5048671;27;20312;-70
2024/01/27 00:39:36;;;;;;;5.53;1.70;;;;;3.50;102818.00;;;;5060332;28;20211;-68
2024/01/27 00:42:24;;;;;;;4.83;1.53;;;;;3.50;102822.00;;;;5038969;27;20227;-68
2024/01/27 00:45:11;;;;;;;5.10;2.00;;;;;3.50;102830.00;;;;5063296;28;20235;-68
2024/01/27 00:47:57;;;;;;;3.80;2.10;;;;;3.40;102833.00;;;;5096720;28;20374;-68
2024/01/27 00:50:44;;;;;;;3.23;1.87;;;;;3.30;102817.00;;;;5043372;28;20216;-68
2024/01/27 00:53:31;;;;;;;4.83;2.07;;;;;3.40;102811.00;;;;5020508;27;20215;-69
2024/01/27 00:56:17;;;;;;;7.67;2.40;;;;;3.30;102815.00;;;;5087807;28;20578;-69
2024/01/27 00:59:05;;;;;;;2.13;1.93;;;;;3.30;102824.00;;;;5035224;27;20233;-68
2024/01/27 01:01:51;;;;;;;1.80;1.70;;;;;3.30;102831.00;;;;5078548;28;20215;-69
2024/01/27 01:04:38;;;;;;;8.40;1.97;;;;;3.30;102814.00;;;;5050083;27;20279;-70
2024/01/27 01:07:25;;;;;;;3.07;2.37;;;;;3.30;102825.00;;;;5059051;28;20222;-69
2024/01/27 01:10:11;;;;;;;1.57;1.33;;;;;3.20;102836.00;;;;5061988;27;20234;-69
2024/01/27 01:12:57;;;;;;;5.33;2.03;;;;;3.20;102833.00;;;;5054887;27;20661;-70
2024/01/27 01:15:45;;;;;;;10.53;2.00;;;;;3.10;102832.00;;;;5061902;27;20293;-69
2024/01/27 01:18:31;;;;;;;3.00;2.27;;;;;3.20;102840.00;;;;4995771;28;20235;-67
2024/01/27 01:21:18;;;;;;;9.87;1.97;;;;;3.10;102831.00;;;;5061558;27;20822;-68
2024/01/27 01:24:05;;;;;;;2.23;1.90;;;;;3.00;102833.00;;;;5070728;27;20246;-68
2024/01/27 01:26:52;;;;;;;1.57;1.47;;;;;3.00;102834.00;;;;5053363;27;20315;-68
2024/01/27 01:29:38;;;;;;;3.73;2.10;;;;;3.10;102838.00;;;;5085496;27;20581;-68
2024/01/27 01:32:26;;;;;;;2.80;1.80;;;;;3.10;102835.00;;;;5049820;27;20706;-67
2024/01/27 01:35:12;;;;;;;1.40;1.30;;;;;3.00;102834.00;;;;5084420;27;20746;-67
2024/01/27 01:37:59;;;;;;;6.13;2.03;;;;;3.00;102834.00;;;;5056386;27;20349;-67
2024/01/27 01:40:45;;;;;;;4.60;1.87;;;;;3.00;102835.00;;;;5050153;28;20288;-68
2024/01/27 01:43:31;;;;;;;5.83;2.23;;;;;2.90;102829.00;;;;5063320;28;20594;-68
2024/01/27 01:46:18;;;;;;;4.57;1.73;;;;;3.00;102834.00;;;;5086805;28;20246;-66
2024/01/27 01:49:06;;;;;;;1.30;1.13;;;;;2.90;102832.00;;;;5043932;27;20604;-69
2024/01/27 01:51:52;;;;;;;2.00;1.50;;;;;3.00;102840.00;;;;5041290;27;20245;-67
2024/01/27 01:54:39;;;;;;;6.90;2.53;;;;;3.00;102832.00;;;;5065631;28;20260;-70
2024/01/27 01:57:25;;;;;;;2.13;1.93;;;;;3.00;102836.00;;;;5048765;27;20224;-67
2024/01/27 02:00:13;;;;;;;3.17;2.27;;;;;2.90;102838.00;;;;5040482;27;20290;-68
2024/01/27 02:02:59;;;;;;;3.80;2.33;;;;;2.90;102828.00;;;;5063807;28;20218;-68
2024/01/27 02:05:47;;;;;;;4.10;1.53;;;;;2.80;102851.00;;;;5034904;28;20223;-68
2024/01/27 02:08:34;;;;;;;2.50;2.00;;;;;2.80;102842.00;;;;5061882;28;20231;-67
2024/01/27 02:11:20;;;;;;;1.70;1.60;;;;;2.90;102841.00;;;;5055271;28;20218;-67
2024/01/27 02:14:07;;;;;;;1.80;1.60;;;;;2.90;102838.00;;;;5038075;27;20285;-68
2024/01/27 02:16:54;;;;;;;6.60;2.13;;;;;2.90;102844.00;;;;5052301;27;20235;-68
2024/01/27 02:19:40;;;;;;;1.87;1.77;;;;;2.90;102844.00;;;;5042430;28;20216;-67
2024/01/27 02:22:28;;;;;;;3.87;2.43;;;;;2.90;102836.00;;;;5057980;27;20313;-67
2024/01/27 02:25:15;;;;;;;4.77;2.50;;;;;2.90;102836.00;;;;5057705;27;20315;-70
2024/01/27 02:28:03;;;;;;;4.37;2.73;;;;;2.80;102834.00;;;;5067180;28;20386;-68
2024/01/27 02:30:49;;;;;;;5.50;1.70;;;;;2.90;102834.00;;;;5044455;28;21090;-67
2024/01/27 02:33:35;;;;;;;2.13;1.93;;;;;2.80;102829.00;;;;5034836;27;20222;-68
2024/01/27 02:36:22;;;;;;;3.60;2.33;;;;;2.80;102836.00;;;;5025770;27;20874;-67
2024/01/27 02:39:08;;;;;;;6.60;2.50;;;;;2.80;102825.00;;;;5064805;27;20238;-68
2024/01/27 02:41:55;;;;;;;8.43;1.83;;;;;2.80;102842.00;;;;5046503;27;20210;-66
2024/01/27 02:44:42;;;;;;;4.10;2.43;;;;;2.90;102840.00;;;;5071306;27;20298;-67
2024/01/27 02:47:28;;;;;;;3.53;2.30;;;;;2.90;102845.00;;;;5045235;27;20251;-67
2024/01/27 02:50:15;;;;;;;1.83;1.70;;;;;2.80;102849.00;;;;5053777;28;20227;-68
2024/01/27 02:53:01;;;;;;;4.47;2.43;;;;;2.80;102841.00;;;;5067941;28;20645;-67
2024/01/27 02:55:48;;;;;;;2.43;1.77;;;;;2.80;102843.00;;;;5043688;28;20775;-67
2024/01/27 02:58:36;;;;;;;3.27;2.20;;;;;2.80;102846.00;;;;5048601;27;20225;-68
2024/01/27 03:01:22;;;;;;;4.03;2.37;;;;;2.80;102841.00;;;;5085078;27;20950;-68
2024/01/27 03:04:08;;;;;;;3.13;1.93;;;;;2.80;102830.00;;;;5062747;28;20219;-67
2024/01/27 03:06:55;;;;;;;3.33;2.00;;;;;2.70;102838.00;;;;5045059;27;20251;-68
2024/01/27 03:09:42;;;;;;;4.73;2.93;;;;;2.80;102830.00;;;;5051245;27;20211;-68
2024/01/27 03:12:28;;;;;;;4.10;2.07;;;;;2.70;102822.00;;;;5096086;27;20825;-71
2024/01/27 03:15:16;;;;;;;9.20;2.83;;;;;2.60;102841.00;;;;5052855;28;20357;-66
2024/01/27 03:18:03;;;;;;;4.13;2.10;;;;;2.60;102836.00;;;;5035833;27;20245;-67
2024/01/27 03:20:49;;;;;;;2.50;2.27;;;;;2.60;102840.00;;;;5071926;27;20255;-68
2024/01/27 03:23:36;;;;;;;4.10;2.40;;;;;2.60;102833.00;;;;5067235;28;20288;-67
2024/01/27 03:26:22;;;;;;;2.57;2.33;;;;;2.60;102830.00;;;;5072170;27;20235;-70
2024/01/27 03:29:09;;;;;;;4.70;3.07;;;;;2.60;102836.00;;;;5074074;27;20235;-70
2024/01/27 03:31:56;;;;;;;16.67;2.80;;;;;2.60;102837.00;;;;5070554;27;20400;-70
2024/01/27 03:34:45;;;;;;;5.27;2.90;;;;;2.60;102837.00;;;;5065654;27;20218;-68
2024/01/27 03:37:31;;;;;;;3.40;2.73;;;;;2.60;102835.00;;;;5023120;27;20227;-67
2024/01/27 03:40:18;;;;;;;8.27;3.27;;;;;2.60;102829.00;;;;5063549;27;20234;-68
2024/01/27 03:43:04;;;;;;;8.10;2.67;;;;;2.50;102833.00;;;;5013465;28;20796;-69
2024/01/27 03:45:50;;;;;;;1.77;1.67;;;;;2.40;102834.00;;;;4996633;28;20263;-68
2024/01/27 03:48:38;;;;;;;6.60;2.67;;;;;2.60;102843.00;;;;5092336;27;20330;-67
2024/01/27 03:51:26;;;;;;;4.43;2.60;;;;;2.60;102844.00;;;;5063198;27;20378;-68
2024/01/27 03:54:12;;;;;;;5.00;3.20;;;;;2.50;102843.00;;;;5095168;27;20333;-68
2024/01/27 03:56:58;;;;;;;6.23;2.70;;;;;2.50;102853.00;;;;5036679;27;20739;-68
2024/01/27 03:59:44;;;;;;;5.03;2.50;;;;;2.50;102859.00;;;;5069342;27;20215;-68
2024/01/27 04:02:31;;;;;;;3.20;2.90;;;;;2.50;102862.00;;;;5051290;27;20344;-67
2024/01/27 04:05:19;;;;;;;4.43;2.57;;;;;2.50;102860.00;;;;5071256;28;20900;-66
2024/01/27 04:08:06;;;;;;;4.80;2.87;;;;;2.40;102862.00;;;;5045273;27;21027;-67
2024/01/27 04:10:52;;;;;;;4.33;2.27;;;;;2.50;102865.00;;;;5042413;27;20585;-67
2024/01/27 04:13:38;;;;;;;8.27;4.00;;;;;2.50;102853.00;;;;5064249;28;20222;-67
2024/01/27 04:16:24;;;;;;;4.40;2.77;;;;;2.40;102862.00;;;;5092799;27;20251;-67
2024/01/27 04:19:11;;;;;;;2.80;2.23;;;;;2.40;102853.00;;;;5061590;28;20230;-68
2024/01/27 04:21:59;;;;;;;4.10;2.37;;;;;2.40;102851.00;;;;5055529;27;20257;-68
2024/01/27 04:24:45;;;;;;;10.87;3.10;;;;;2.40;102856.00;;;;5042655;27;20349;-67
2024/01/27 04:27:32;;;;;;;3.07;2.73;;;;;2.40;102855.00;;;;5090150;27;20236;-67
2024/01/27 04:30:18;;;;;;;3.73;2.60;;;;;2.40;102861.00;;;;5079644;27;20216;-68
2024/01/27 04:33:07;;;;;;;4.20;2.40;;;;;2.40;102860.00;;;;5047866;27;20226;-68
2024/01/27 04:35:53;;;;;;;7.53;3.30;;;;;2.30;102864.00;;;;5061248;27;20213;-67
2024/01/27 04:38:41;;;;;;;15.17;3.30;;;;;2.30;102859.00;;;;5038703;27;20309;-68
2024/01/27 04:41:27;;;;;;;4.83;2.20;;;;;2.30;102869.00;;;;5088857;28;20211;-68
2024/01/27 04:44:13;;;;;;;5.40;3.10;;;;;2.40;102870.00;;;;5037330;27;20714;-67
2024/01/27 04:46:59;;;;;;;9.83;3.57;;;;;2.20;102872.00;;;;5046755;27;20224;-69
2024/01/27 04:49:46;;;;;;;8.23;3.97;;;;;2.30;102878.00;;;;5068565;27;20728;-68
2024/01/27 04:52:32;;;;;;;7.73;3.50;;;;;2.30;102869.00;;;;5036920;27;20220;-68
2024/01/27 04:55:19;;;;;;;14.50;3.13;;;;;2.30;102868.00;;;;5047880;27;20255;-67
2024/01/27 04:58:08;;;;;;;6.40;3.90;;;;;2.20;102856.00;;;;5059912;27;20227;-67
2024/01/27 05:00:54;;;;;;;14.13;3.23;;;;;2.20;102872.00;;;;5048926;27;20211;-67
2024/01/27 05:03:41;;;;;;;4.37;3.80;;;;;2.20;102876.00;;;;5082968;27;20706;-68
2024/01/27 05:06:27;;;;;;;7.30;3.20;;;;;2.10;102877.00;;;;5078412;27;20223;-70
2024/01/27 05:09:14;;;;;;;9.77;4.00;;;;;2.10;102878.00;;;;5045328;27;20341;-68
2024/01/27 05:12:02;;;;;;;9.53;2.90;;;;;2.20;102869.00;;;;5042579;27;20211;-68
2024/01/27 05:14:48;;;;;;;7.17;2.93;;;;;2.10;102868.00;;;;5031112;27;20243;-68
2024/01/27 05:17:35;;;;;;;3.37;2.90;;;;;2.10;102866.00;;;;5073902;28;20280;-68
2024/01/27 05:20:24;;;;;;;11.23;3.60;;;;;2.10;102861.00;;;;5041061;27;20208;-66
2024/01/27 05:23:11;;;;;;;6.23;2.80;;;;;2.10;102853.00;;;;5059087;27;20212;-67
2024/01/27 05:25:57;;;;;;;3.93;3.00;;;;;2.10;102863.00;;;;5065900;27;20724;-68
2024/01/27 05:28:45;;;;;;;5.27;3.50;;;;;2.10;102862.00;;;;5046766;27;20243;-70
2024/01/27 05:31:31;;;;;;;9.93;3.47;;;;;2.10;102861.00;;;;5042525;27;20344;-70
2024/01/27 05:34:17;;;;;;;7.57;3.40;;;;;2.00;102852.00;;;;5079525;28;20319;-66
2024/01/27 05:37:04;;;;;;;5.07;3.40;;;;;2.00;102864.00;;;;5037191;27;20261;-69
2024/01/27 05:39:53;;;;;;;8.17;3.53;;;;;2.00;102865.00;;;;5029662;28;20304;-70
2024/01/27 05:42:41;;;;;;;5.50;3.43;;;;;2.00;102874.00;;;;5044808;28;20366;-67
2024/01/27 05:45:31;;;;;;;8.77;3.20;;;;;2.00;102866.00;;;;5033677;27;20227;-67
2024/01/27 05:48:17;;;;;;;5.03;3.73;;;;;2.00;102858.00;;;;5040174;27;20238;-71
2024/01/27 05:51:04;;;;;;;12.57;5.43;;;;;2.00;102867.00;;;;4994122;28;20330;-70
2024/01/27 05:53:50;;;;;;;5.23;3.60;;;;;2.00;102867.00;;;;5014149;28;20689;-66
2024/01/27 05:56:38;;;;;;;5.33;3.20;;;;;1.90;102870.00;;;;5055922;27;20357;-70
2024/01/27 05:59:26;;;;;;;3.80;3.13;;;;;1.90;102869.00;;;;5037193;28;20606;-66
2024/01/27 06:02:14;;;;;;;5.67;3.50;;;;;1.90;102874.00;;;;5017451;27;20208;-67
2024/01/27 06:05:00;;;;;;;10.10;3.17;;;;;1.90;102878.00;;;;5075268;27;20226;-66
2024/01/27 06:07:47;;;;;;;4.33;3.00;;;;;1.90;102877.00;;;;5084161;28;20231;-67
2024/01/27 06:10:36;;;;;;;4.50;2.70;;;;;1.80;102879.00;;;;5061293;28;20225;-70
2024/01/27 06:13:22;;;;;;;4.47;3.80;;;;;1.80;102887.00;;;;5035400;28;20292;-68
2024/01/27 06:16:09;;;;;;;6.70;3.60;;;;;1.80;102876.00;;;;5056840;28;20244;-68
2024/01/27 06:18:57;;;;;;;5.33;3.70;;;;;1.80;102879.00;;;;5062328;28;20235;-66
2024/01/27 06:21:43;;;;;;;5.17;3.90;;;;;1.80;102877.00;;;;5061259;28;20297;-66
2024/01/27 06:24:33;;;;;;;5.23;3.37;;;;;1.80;102878.00;;;;5042389;27;20233;-67
2024/01/27 06:27:19;;;;;;;3.43;3.13;;;;;1.80;102890.00;;;;5060480;28;20372;-67
2024/01/27 06:30:07;;;;;;;10.70;4.17;;;;;1.80;102888.00;;;;5023846;27;20216;-67
2024/01/27 06:32:56;;;;;;;5.40;3.93;;;;;1.80;102899.00;;;;5043118;28;20789;-67
2024/01/27 06:35:44;;;;;;;4.83;3.33;;;;;1.70;102902.00;;;;5066713;28;20319;-68
2024/01/27 06:38:31;;;;;;;5.53;3.50;;;;;1.70;102871.00;;;;5062600;28;20240;-66
2024/01/27 06:41:18;;;;;;;3.67;3.20;;;;;1.60;102898.00;;;;5039374;27;20319;-69
2024/01/27 06:44:04;;;;;;;5.30;3.77;;;;;1.60;102897.00;;;;5042741;27;20205;-67
2024/01/27 06:46:51;;;;;;;4.03;3.50;;;;;1.60;102905.00;;;;5058319;28;20574;-68
2024/01/27 06:49:37;;;;;;;8.53;3.50;;;;;1.60;102908.00;;;;5045160;28;20244;-68
2024/01/27 06:52:30;;;;;;;8.93;4.27;;;;;1.60;102905.00;;;;5072093;27;20268;-67
2024/01/27 06:55:19;;;;;;;4.50;3.50;;;;;1.60;102916.00;;;;5060287;28;20724;-67
2024/01/27 06:58:08;;;;;;;6.57;3.37;;;;;1.70;102926.00;;;;5040759;28;20303;-68
2024/01/27 07:00:54;;;;;;;4.77;3.43;;;;;1.70;102921.00;;;;5064379;28;20234;-66
2024/01/27 07:03:41;;;;;;;5.33;4.20;;;;;1.60;102922.00;;;;5049977;28;20209;-68
2024/01/27 07:06:27;;;;;;;6.00;3.27;;;;;1.60;102925.00;;;;5090703;28;20274;-67
2024/01/27 07:09:15;;;;;;;3.57;3.27;;;;;1.60;102938.00;;;;5067323;28;20237;-67
2024/01/27 07:12:01;;;;;;;6.77;4.37;;;;;1.50;102934.00;;;;5055078;28;20742;-67
2024/01/27 07:14:48;;;;;;;4.10;3.37;;;;;1.60;102938.00;;;;5083990;28;20569;-67
2024/01/27 07:17:34;;;;;;;4.77;3.67;;;;;1.60;102933.00;;;;5082551;28;20218;-69
2024/01/27 07:20:23;;;;;;;5.30;3.33;;;;;1.60;102942.00;;;;5086619;28;20208;-68
2024/01/27 07:23:09;;;;;;;3.87;3.17;;;;;1.60;102940.00;;;;5085598;28;20213;-70
2024/01/27 07:25:57;;;;;;;7.17;3.13;;;;;1.60;102942.00;;;;5085549;28;20224;-69
2024/01/27 07:28:43;;;;;;;7.03;3.87;;;;;1.60;102949.00;;;;5062568;28;20316;-69
2024/01/27 07:31:31;;;;;;;10.50;4.33;;;;;1.50;102944.00;;;;5064178;27;20279;-66
2024/01/27 07:34:17;;;;;;;10.80;3.53;;;;;1.60;102938.00;;;;5039914;28;20357;-68
2024/01/27 07:37:04;;;;;;;5.60;3.07;;;;;1.50;102957.00;;;;5070854;27;20244;-68
2024/01/27 07:39:50;;;;;;;7.83;4.23;;;;;1.50;102937.00;;;;5033842;28;21370;-69
2024/01/27 07:42:38;;;;;;;5.87;3.53;;;;;1.60;102938.00;;;;5036776;28;20231;-68
2024/01/27 07:45:24;;;;;;;4.73;3.73;;;;;1.60;102944.00;;;;5063430;27;20222;-68
2024/01/27 07:48:11;;;;;;;7.07;3.83;;;;;1.60;102947.00;;;;5047625;27;20604;-66
2024/01/27 07:50:57;;;;;;;5.77;4.33;;;;;1.60;102940.00;;;;5086676;27;20221;-66
2024/01/27 07:53:44;;;;;;;7.80;4.00;;;;;1.80;102936.00;;;;5063995;27;20212;-65
2024/01/27 07:56:30;;;;;;;5.90;4.07;;;;;1.70;102943.00;;;;5039427;27;20218;-68
2024/01/27 07:59:18;;;;;;;3.87;3.10;;;;;1.80;102943.00;;;;5053436;27;20338;-71
2024/01/27 08:02:05;;;;;;;5.50;4.13;;;;;1.80;102957.00;;;;5036036;27;20253;-72
2024/01/27 08:04:51;;;;;;;5.80;4.33;;;;;1.90;102955.00;;;;5039769;27;20255;-71
2024/01/27 08:07:38;;;;;;;6.90;4.17;;;;;1.90;102957.00;;;;5082930;27;20238;-73
2024/01/27 08:10:24;;;;;;;10.40;4.13;;;;;1.90;102955.00;;;;5085054;27;20240;-69
2024/01/27 08:13:10;;;;;;;3.73;3.20;;;;;1.90;102956.00;;;;5062910;27;20339;-69
2024/01/27 08:15:58;;;;;;;7.60;4.33;;;;;2.00;102960.00;;;;5079850;27;20221;-69
2024/01/27 08:18:45;;;;;;;5.17;3.13;;;;;2.00;102968.00;;;;5010434;27;20359;-70
2024/01/27 08:21:31;;;;;;;10.40;4.60;;;;;2.00;102967.00;;;;5060796;28;20706;-70
2024/01/27 08:24:18;;;;;;;7.97;3.70;;;;;2.00;102966.00;;;;5050336;27;20212;-70
2024/01/27 08:27:05;;;;;;;7.73;3.67;;;;;2.10;102967.00;;;;5058361;27;20225;-71
2024/01/27 08:29:51;;;;;;;5.80;3.70;;;;;2.10;102963.00;;;;5021878;28;20235;-71
2024/01/27 08:32:41;;;;;;;8.93;4.53;;;;;2.20;102968.00;;;;5063144;27;20706;-70
2024/01/27 08:35:28;;;;;;;6.50;3.50;;;;;2.30;102960.00;;;;5079960;27;20776;-71
2024/01/27 08:38:14;;;;;;;6.23;3.93;;;;;2.30;102970.00;;;;5052101;27;20344;-71
2024/01/27 08:41:01;;;;;;;6.77;3.63;;;;;2.30;102970.00;;;;5028972;27;20239;-70
2024/01/27 08:43:47;;;;;;;5.63;3.43;;;;;2.40;102965.00;;;;5068714;28;20289;-70
2024/01/27 08:46:33;;;;;;;6.20;3.87;;;;;2.50;102977.00;;;;5056177;27;20239;-71
2024/01/27 08:49:21;;;;;;;8.27;4.13;;;;;2.50;102967.00;;;;5039582;27;20233;-69
2024/01/27 08:52:07;;;;;;;5.67;3.77;;;;;2.50;102965.00;;;;5071379;27;20254;-68
2024/01/27 08:54:53;;;;;;;8.30;4.33;;;;;2.50;102958.00;;;;5047780;27;20916;-69
2024/01/27 08:57:40;;;;;;;7.73;4.60;;;;;2.60;102961.00;;;;5061109;28;20229;-69
2024/01/27 09:00:26;;;;;;;6.73;4.30;;;;;2.60;102972.00;;;;5041488;27;20798;-69
2024/01/27 09:03:14;;;;;;;6.40;4.37;;;;;2.70;102979.00;;;;5052868;27;20231;-70
2024/01/27 09:06:02;;;;;;;11.53;5.03;;;;;2.80;102984.00;;;;5063008;28;20575;-71
2024/01/27 09:08:48;;;;;;;5.70;3.83;;;;;2.80;102987.00;;;;5070948;28;20242;-68
2024/01/27 09:11:34;;;;;;;7.87;4.90;;;;;2.90;102998.00;;;;5064906;28;20219;-67
2024/01/27 09:14:21;;;;;;;5.40;4.10;;;;;3.00;102990.00;;;;5043995;27;20214;-69
2024/01/27 09:17:07;;;;;;;9.87;5.00;;;;;3.00;102985.00;;;;5066217;27;20233;-71
2024/01/27 09:19:53;;;;;;;7.97;3.53;;;;;3.10;102982.00;;;;5065181;27;20230;-70
2024/01/27 09:22:42;;;;;;;7.40;5.30;;;;;3.10;102993.00;;;;5027037;27;20249;-70
2024/01/27 09:25:29;;;;;;;6.80;4.07;;;;;3.30;102988.00;;;;5048214;28;20720;-71
2024/01/27 09:28:15;;;;;;;9.07;5.23;;;;;3.40;102994.00;;;;5046303;28;20232;-71
2024/01/27 09:31:02;;;;;;;16.43;5.10;;;;;3.50;102986.00;;;;5047276;28;20242;-71
2024/01/27 09:33:50;;;;;;;10.07;6.57;;;;;3.70;102998.00;;;;5041784;28;20211;-70
2024/01/27 09:36:36;;;;;;;10.47;6.03;;;;;3.80;102996.00;;;;5014714;28;20326;-70
2024/01/27 09:39:24;;;;;;;7.13;4.27;;;;;3.90;102991.00;;;;4996702;28;20430;-70
2024/01/27 09:42:14;;;;;;;10.60;5.03;;;;;4.00;102997.00;;;;5051968;28;20216;-70
2024/01/27 09:45:03;;;;;;;12.93;5.77;;;;;4.10;102976.00;;;;5108245;27;20230;-69
2024/01/27 09:47:50;;;;;;;11.37;5.50;;;;;4.10;102976.00;;;;5037267;27;20235;-70
2024/01/27 09:50:37;;;;;;;14.97;5.20;;;;;4.20;102990.00;;;;5042777;27;20351;-70
2024/01/27 09:53:23;;;;;;;17.03;5.37;;;;;4.20;102997.00;;;;5052365;27;20806;-70
2024/01/27 09:56:17;;;;;;;9.23;5.20;;;;;4.30;102997.00;;;;5064392;28;20321;-70
2024/01/27 09:59:06;;;;;;;11.73;4.40;;;;;4.40;102997.00;;;;5051530;27;20862;-70
2024/01/27 10:01:53;;;;;;;10.57;5.03;;;;;4.40;103000.00;;;;5095271;27;20318;-71
2024/01/27 10:04:41;;;;;;;6.77;4.10;;;;;4.60;103002.00;;;;5060863;28;20576;-70
2024/01/27 10:07:28;;;;;;;13.60;4.73;;;;;4.70;103002.00;;;;5052836;27;20692;-70
2024/01/27 10:10:15;;;;;;;8.30;4.40;;;;;4.80;103001.00;;;;5072943;27;20755;-70
2024/01/27 10:13:06;;;;;;;11.63;5.17;;;;;4.90;103006.00;;;;5058832;28;20219;-68
2024/01/27 10:16:00;;;;;;;9.70;4.67;;;;;5.00;103006.00;;;;5045264;27;20233;-70
2024/01/27 10:18:46;;;;;;;8.13;5.30;;;;;5.10;102998.00;;;;5024053;28;20238;-68
2024/01/27 10:21:34;;;;;;;12.73;5.03;;;;;5.30;102998.00;;;;5077455;27;20212;-68
2024/01/27 10:24:21;;;;;;;7.07;4.50;;;;;5.40;102996.00;;;;5044238;28;20801;-68
2024/01/27 10:27:08;;;;;;;11.90;5.17;;;;;5.50;102994.00;;;;5039497;28;20277;-69
2024/01/27 10:29:56;;;;;;;18.23;4.77;;;;;5.60;103002.00;;;;5072361;28;20236;-70
2024/01/27 10:32:42;;;;;;;9.60;5.10;;;;;5.70;103005.00;;;;5030738;28;20382;-69
2024/01/27 10:35:28;;;;;;;12.07;5.37;;;;;5.70;103000.00;;;;5045732;27;20611;-67
2024/01/27 10:38:15;;;;;;;9.67;4.43;;;;;5.90;102999.00;;;;5049766;28;20764;-68
2024/01/27 10:41:02;;;;;;;9.70;4.63;;;;;6.10;103010.00;;;;5058847;27;20359;-69
2024/01/27 10:43:51;;;;;;;11.57;4.33;;;;;6.20;103000.00;;;;5056366;27;20365;-69
2024/01/27 10:46:38;;;;;;;16.10;4.67;;;;;6.20;103008.00;;;;5053841;28;20270;-68
2024/01/27 10:49:25;;;;;;;16.50;4.87;;;;;6.30;103000.00;;;;5036645;28;20370;-69
2024/01/27 10:52:14;;;;;;;24.63;5.07;;;;;6.50;103002.00;;;;4999233;28;20279;-71
2024/01/27 10:55:03;;;;;;;10.27;4.57;;;;;6.60;103008.00;;;;5010060;28;20301;-68
2024/01/27 10:57:51;;;;;;;12.63;4.57;;;;;6.70;102996.00;;;;5069898;27;20897;-68
2024/01/27 11:00:38;;;;;;;15.30;4.50;;;;;6.80;102999.00;;;;5074981;27;20269;-68
2024/01/27 11:03:27;;;;;;;10.60;4.10;;;;;6.80;102999.00;;;;5067730;27;20264;-68
2024/01/27 11:06:14;;;;;;;7.30;3.63;;;;;6.90;103005.00;;;;5059286;27;20220;-69
2024/01/27 11:09:01;;;;;;;9.70;3.77;;;;;7.00;102999.00;;;;5038341;27;20228;-68
2024/01/27 11:11:48;;;;;;;12.83;3.80;;;;;7.10;102998.00;;;;5063726;27;20371;-70
2024/01/27 11:14:34;;;;;;;10.23;4.20;;;;;7.10;103001.00;;;;5049862;28;20260;-68
2024/01/27 11:17:21;;;;;;;8.13;4.00;;;;;7.20;103013.00;;;;5080531;27;20233;-69
2024/01/27 11:20:11;;;;;;;11.07;4.40;;;;;7.40;103005.00;;;;5069651;27;20744;-68
2024/01/27 11:23:09;;;;;;;9.23;3.57;;;;;7.30;103002.00;;;;5035866;27;20220;-67
2024/01/27 11:26:03;;;;;;;12.67;3.83;;;;;7.40;103012.00;;;;5057766;27;20209;-68
2024/01/27 11:28:50;;;;;;;13.57;5.30;;;;;7.60;103014.00;;;;5043489;27;20336;-69
2024/01/27 11:31:36;;;;;;;12.60;3.50;;;;;7.60;103012.00;;;;5062074;28;20340;-71
2024/01/27 11:34:23;;;;;;;5.13;2.90;;;;;7.60;103006.00;;;;5064152;28;20268;-66
2024/01/27 11:37:15;;;;;;;10.53;3.90;;;;;7.80;103011.00;;;;5045559;27;20237;-67
2024/01/27 11:40:07;;;;;;;16.27;4.73;;;;;7.80;103016.00;;;;5062486;27;20995;-67
2024/01/27 11:42:57;;;;;;;8.80;4.07;;;;;7.90;103012.00;;;;5089741;28;20234;-69
2024/01/27 11:45:43;;;;;;;10.10;4.03;;;;;7.90;103002.00;;;;5054163;27;20976;-68
2024/01/27 11:48:29;;;;;;;12.27;3.80;;;;;8.10;103003.00;;;;5067804;27;20240;-67
2024/01/27 11:51:16;;;;;;;6.87;3.60;;;;;8.20;103003.00;;;;5074001;27;21176;-67
2024/01/27 11:54:04;;;;;;;7.17;3.10;;;;;8.20;103001.00;;;;5055054;27;20218;-70
2024/01/27 11:56:51;;;;;;;8.63;4.33;;;;;8.20;102986.00;;;;5094531;27;20234;-68
2024/01/27 11:59:37;;;;;;;14.23;4.90;;;;;8.30;102997.00;;;;5053972;27;20354;-70
2024/01/27 12:02:24;;;;;;;12.93;4.60;;;;;8.30;102990.00;;;;5049059;27;20227;-68
2024/01/27 12:05:10;;;;;;;8.77;3.83;;;;;8.40;102991.00;;;;5050640;27;20222;-68
2024/01/27 12:07:57;;;;;;;9.63;3.63;;;;;8.40;102990.00;;;;5063895;27;20652;-70
2024/01/27 12:10:44;;;;;;;13.07;4.33;;;;;8.50;102982.00;;;;5049427;28;20355;-69
2024/01/27 12:13:31;;;;;;;11.53;4.03;;;;;8.60;102994.00;;;;5097415;27;20221;-68
2024/01/27 12:16:17;;;;;;;7.23;3.90;;;;;8.70;102998.00;;;;5062298;28;20304;-68
2024/01/27 12:19:04;;;;;;;17.07;4.37;;;;;8.70;103000.00;;;;5059368;27;20318;-68
2024/01/27 12:21:50;;;;;;;13.77;4.83;;;;;8.70;102991.00;;;;5073403;27;20667;-67
2024/01/27 12:24:36;;;;;;;7.73;3.70;;;;;8.70;102998.00;;;;5039209;27;20214;-69
2024/01/27 12:27:24;;;;;;;11.10;4.67;;;;;8.80;103012.00;;;;5066203;27;20254;-70
2024/01/27 12:30:11;;;;;;;9.53;3.83;;;;;8.80;103008.00;;;;5065635;27;20216;-70
2024/01/27 12:32:57;;;;;;;8.80;4.30;;;;;8.90;103006.00;;;;5019689;27;20239;-71
2024/01/27 12:35:44;;;;;;;10.37;4.13;;;;;9.10;103004.00;;;;5050687;27;20293;-72
2024/01/27 12:38:30;;;;;;;6.40;3.57;;;;;9.30;102999.00;;;;5041814;27;20238;-67
2024/01/27 12:41:16;;;;;;;13.87;3.70;;;;;9.30;103000.00;;;;5042124;27;20227;-71
2024/01/27 12:44:04;;;;;;;13.47;4.07;;;;;9.30;102996.00;;;;5071566;27;20206;-70
2024/01/27 12:46:51;;;;;;;6.87;3.50;;;;;9.40;102999.00;;;;5064646;28;20289;-66
2024/01/27 12:49:38;;;;;;;7.90;3.20;;;;;9.30;102984.00;;;;5059490;28;20240;-69
2024/01/27 12:52:25;;;;;;;8.03;3.87;;;;;9.60;102994.00;;;;5065602;27;20369;-68
2024/01/27 12:55:11;;;;;;;7.07;3.13;;;;;9.50;103002.00;;;;5023518;27;20939;-69
2024/01/27 12:57:58;;;;;;;8.73;3.10;;;;;9.40;102997.00;;;;5061566;28;20386;-69
2024/01/27 13:00:46;;;;;;;9.13;3.57;;;;;9.20;103001.00;;;;5043355;27;20704;-67
2024/01/27 13:03:32;;;;;;;11.80;3.23;;;;;9.10;103002.00;;;;5063896;27;20620;-68
2024/01/27 13:06:20;;;;;;;7.27;3.27;;;;;9.00;103006.00;;;;5074862;27;20287;-68
2024/01/27 13:09:07;;;;;;;11.70;3.43;;;;;9.00;102989.00;;;;5036098;28;20366;-68
2024/01/27 13:11:53;;;;;;;3.90;2.50;;;;;8.90;102984.00;;;;5075012;27;20705;-68
2024/01/27 13:14:39;;;;;;;7.73;3.27;;;;;8.90;102989.00;;;;5068941;27;20211;-68
2024/01/27 13:17:27;;;;;;;8.93;3.40;;;;;8.70;102987.00;;;;5084104;28;20219;-68
2024/01/27 13:20:14;;;;;;;10.93;3.40;;;;;8.70;102972.00;;;;5042852;27;20234;-71
2024/01/27 13:23:04;;;;;;;11.10;3.03;;;;;8.70;102972.00;;;;5066685;27;20231;-69
2024/01/27 13:25:51;;;;;;;6.47;2.90;;;;;8.70;102979.00;;;;5003693;28;20231;-68
2024/01/27 13:28:57;;;;;;;7.73;2.90;;;;;8.60;102972.00;;;;5041944;28;20240;-69
2024/01/27 13:31:43;;;;;;;4.87;2.47;;;;;8.50;102985.00;;;;5087917;28;20239;-70
2024/01/27 13:34:32;;;;;;;4.33;2.20;;;;;8.50;102979.00;;;;5038882;27;20297;-69
2024/01/27 13:37:19;;;;;;;8.97;3.27;;;;;8.50;102972.00;;;;5061708;27;20215;-69
2024/01/27 13:40:07;;;;;;;9.97;3.30;;;;;8.50;102968.00;;;;5015565;27;20409;-70
2024/01/27 13:42:54;;;;;;;5.23;3.13;;;;;8.70;102969.00;;;;5058286;28;20713;-67
2024/01/27 13:45:40;;;;;;;9.03;3.00;;;;;8.60;102971.00;;;;5056017;27;20248;-69
2024/01/27 13:48:27;;;;;;;5.50;2.17;;;;;8.50;102973.00;;;;5095120;27;20234;-68
2024/01/27 13:51:15;;;;;;;5.97;2.60;;;;;8.50;102983.00;;;;5075177;27;20225;-71
2024/01/27 13:54:02;;;;;;;7.00;2.50;;;;;8.40;102986.00;;;;5068453;27;20210;-66